Time;durP1;ratioP1;P1;durP2;ratioP2;P2;SDS_P1;SDS_P2;PMS_P1;PMS_P2;Temp;Humidity;BMP_temperature;BMP_pressure;BME280_temperature;BME280_humidity;BME280_pressure;Samples;Min_cycle;Max_cycle;Signal;HPM_P1;HPM_P2
2022/05/01 00:00:33;;;;;;;13.83;9.37;;;8.70;99.90;;;;;;5030414;28;20465;-71
2022/05/01 00:03:00;;;;;;;13.50;10.47;;;8.70;99.90;;;;;;5034419;28;20445;-71
2022/05/01 00:05:27;;;;;;;14.37;9.13;;;8.70;99.90;;;;;;5033582;28;21201;-71
2022/05/01 00:07:53;;;;;;;21.70;10.57;;;8.70;99.90;;;;;;5027788;28;20547;-71
2022/05/01 00:10:21;;;;;;;14.10;9.40;;;8.70;99.90;;;;;;5035468;28;20468;-71
2022/05/01 00:12:48;;;;;;;14.17;9.77;;;8.70;99.90;;;;;;5026687;28;20507;-71
2022/05/01 00:15:14;;;;;;;12.60;9.80;;;8.70;99.90;;;;;;5023143;28;21011;-71
2022/05/01 00:17:41;;;;;;;11.90;9.73;;;8.70;99.90;;;;;;5036113;28;20485;-71
2022/05/01 00:20:09;;;;;;;12.60;10.50;;;8.80;99.90;;;;;;5027208;28;20505;-73
2022/05/01 00:22:36;;;;;;;14.80;9.30;;;8.80;99.90;;;;;;5025641;28;20456;-71
2022/05/01 00:25:03;;;;;;;13.53;9.07;;;8.70;99.90;;;;;;5018966;28;20500;-71
2022/05/01 00:27:31;;;;;;;15.27;9.57;;;8.70;99.90;;;;;;5023277;28;20869;-71
2022/05/01 00:29:58;;;;;;;14.90;10.00;;;8.70;99.90;;;;;;5032751;28;20466;-71
2022/05/01 00:32:25;;;;;;;16.00;9.30;;;8.70;99.90;;;;;;5023997;28;20450;-71
2022/05/01 00:37:37;;;;;;;13.53;9.13;;;8.70;99.90;;;;;;5026037;28;20837;-71
2022/05/01 00:40:04;;;;;;;14.57;9.20;;;8.60;99.90;;;;;;5029842;28;20549;-71
2022/05/01 00:42:32;;;;;;;13.17;9.73;;;8.60;99.90;;;;;;5023785;28;20445;-71
2022/05/01 00:44:59;;;;;;;15.80;10.40;;;8.60;99.90;;;;;;5034135;28;20520;-71
2022/05/01 00:47:25;;;;;;;16.80;9.20;;;8.60;99.90;;;;;;5019211;28;20450;-71
2022/05/01 00:49:52;;;;;;;15.20;9.37;;;8.60;99.90;;;;;;5043463;28;20465;-71
2022/05/01 00:52:22;;;;;;;14.03;9.53;;;8.50;99.90;;;;;;5019253;28;20504;-71
2022/05/01 00:54:49;;;;;;;18.40;9.33;;;8.60;99.90;;;;;;5027312;28;20456;-71
2022/05/01 00:57:17;;;;;;;20.10;9.90;;;8.50;99.90;;;;;;5024576;28;20532;-71
2022/05/01 00:59:48;;;;;;;13.13;8.70;;;8.50;99.90;;;;;;5021143;28;20481;-71
2022/05/01 01:02:14;;;;;;;10.30;8.97;;;8.50;99.90;;;;;;5019963;28;20515;-71
2022/05/01 01:04:41;;;;;;;19.13;9.87;;;8.50;99.90;;;;;;5035980;28;20480;-71
2022/05/01 01:07:08;;;;;;;12.07;8.90;;;8.50;99.90;;;;;;5018892;28;20442;-71
2022/05/01 01:09:36;;;;;;;12.07;8.63;;;8.50;99.90;;;;;;5030596;28;20882;-71
2022/05/01 01:14:49;;;;;;;15.00;9.10;;;8.50;99.90;;;;;;5027143;28;20533;-71
2022/05/01 01:17:16;;;;;;;20.10;8.77;;;8.60;99.90;;;;;;5023158;28;20478;-71
2022/05/01 01:19:42;;;;;;;9.10;8.13;;;8.60;99.90;;;;;;5028944;28;20458;-71
2022/05/01 01:22:11;;;;;;;13.47;9.50;;;8.60;99.90;;;;;;5015768;28;20845;-71
2022/05/01 01:24:41;;;;;;;16.47;9.50;;;8.60;99.90;;;;;;5027805;28;20473;-71
2022/05/01 01:27:08;;;;;;;13.10;9.20;;;8.60;99.90;;;;;;5015110;28;20485;-71
2022/05/01 01:32:25;;;;;;;16.43;9.23;;;8.70;99.90;;;;;;5024112;28;20444;-71
2022/05/01 01:34:53;;;;;;;10.77;8.13;;;8.70;99.90;;;;;;5025734;28;20461;-71
2022/05/01 01:37:24;;;;;;;11.63;8.47;;;8.70;99.90;;;;;;5018049;28;20494;-71
2022/05/01 01:39:51;;;;;;;12.10;9.17;;;8.60;99.90;;;;;;5030723;28;20523;-71
2022/05/01 01:42:19;;;;;;;15.47;9.40;;;8.60;99.90;;;;;;5018328;28;20804;-71
2022/05/01 01:44:46;;;;;;;12.57;8.93;;;8.70;99.90;;;;;;5023862;28;20445;-71
2022/05/01 01:47:14;;;;;;;9.93;8.70;;;8.60;99.90;;;;;;5024010;28;20450;-71
2022/05/01 01:49:41;;;;;;;14.23;9.63;;;8.70;99.90;;;;;;5034915;28;21057;-71
2022/05/01 01:52:08;;;;;;;15.80;9.57;;;8.70;99.90;;;;;;5032889;28;20486;-71
2022/05/01 01:54:36;;;;;;;11.67;9.20;;;8.60;99.90;;;;;;5027708;28;20462;-71
2022/05/01 01:57:03;;;;;;;11.73;8.80;;;8.60;99.90;;;;;;5026087;28;20512;-71
2022/05/01 01:59:29;;;;;;;14.27;9.63;;;8.60;99.90;;;;;;5027492;28;20995;-71
2022/05/01 02:01:56;;;;;;;16.27;9.27;;;8.60;99.90;;;;;;5022368;28;20450;-71
2022/05/01 02:04:23;;;;;;;15.17;9.57;;;8.60;99.90;;;;;;5022434;28;20474;-71
2022/05/01 02:06:49;;;;;;;14.70;10.23;;;8.60;99.90;;;;;;5031520;28;20499;-71
2022/05/01 02:09:17;;;;;;;19.57;9.83;;;8.50;99.90;;;;;;5028128;28;20446;-71
2022/05/01 02:11:45;;;;;;;16.20;9.93;;;8.40;99.90;;;;;;5018218;28;20572;-71
2022/05/01 02:14:12;;;;;;;14.43;9.10;;;8.40;99.90;;;;;;5014515;28;20454;-71
2022/05/01 02:20:00;;;;;;;19.40;10.80;;;8.30;99.90;;;;;;5016105;28;21013;-71
2022/05/01 02:22:27;;;;;;;19.73;10.40;;;8.30;99.90;;;;;;5020000;28;20505;-71
2022/05/01 02:24:55;;;;;;;11.20;8.93;;;8.20;99.90;;;;;;5014893;28;20489;-71
2022/05/01 02:27:23;;;;;;;19.70;9.93;;;8.20;99.90;;;;;;5013293;28;20508;-71
2022/05/01 02:29:49;;;;;;;11.63;9.30;;;8.20;99.90;;;;;;5024553;28;20455;-71
2022/05/01 02:32:16;;;;;;;13.20;9.40;;;8.20;99.90;;;;;;5028182;28;20965;-71
2022/05/01 02:34:42;;;;;;;14.57;10.57;;;8.20;99.90;;;;;;5022482;28;20461;-71
2022/05/01 02:37:09;;;;;;;15.97;10.40;;;8.20;99.90;;;;;;5014516;28;20442;-71
2022/05/01 02:39:36;;;;;;;12.43;10.23;;;8.20;99.90;;;;;;5015434;28;21053;-71
2022/05/01 02:42:03;;;;;;;15.97;11.00;;;8.10;99.90;;;;;;5030895;28;20447;-71
2022/05/01 02:44:31;;;;;;;14.83;10.07;;;8.10;99.90;;;;;;5019883;28;20457;-71
2022/05/01 02:46:58;;;;;;;14.30;10.30;;;8.20;99.90;;;;;;5017308;28;20446;-71
2022/05/01 02:49:24;;;;;;;17.73;10.93;;;8.10;99.90;;;;;;5024537;28;20450;-71
2022/05/01 02:51:53;;;;;;;19.80;11.33;;;8.10;99.90;;;;;;5021056;28;20470;-71
2022/05/01 02:54:20;;;;;;;11.97;10.53;;;8.20;99.90;;;;;;5013797;28;20858;-71
2022/05/01 02:56:49;;;;;;;13.50;10.30;;;8.10;99.90;;;;;;5021654;28;20566;-71
2022/05/01 02:59:16;;;;;;;13.60;10.37;;;8.10;99.90;;;;;;5014127;28;20482;-71
2022/05/01 03:01:44;;;;;;;14.47;9.80;;;8.10;99.90;;;;;;5024560;28;20831;-70
2022/05/01 03:04:11;;;;;;;16.00;10.70;;;8.20;99.90;;;;;;5025716;28;20509;-71
2022/05/01 03:06:37;;;;;;;17.63;10.47;;;8.20;99.90;;;;;;5019346;28;21039;-71
2022/05/01 03:09:05;;;;;;;14.30;9.87;;;8.10;99.90;;;;;;5013813;28;20450;-71
2022/05/01 03:11:32;;;;;;;13.23;9.60;;;8.20;99.90;;;;;;5025089;28;20534;-71
2022/05/01 03:13:59;;;;;;;11.07;9.63;;;8.20;99.90;;;;;;5024131;28;20537;-71
2022/05/01 03:16:25;;;;;;;11.50;9.60;;;8.20;99.90;;;;;;5014969;28;20458;-71
2022/05/01 03:24:21;;;;;;;15.13;10.53;;;8.20;99.90;;;;;;5024412;28;20471;-71
2022/05/01 03:26:48;;;;;;;11.93;9.83;;;8.30;99.90;;;;;;5012812;28;20520;-71
2022/05/01 03:29:15;;;;;;;14.40;10.20;;;8.20;99.90;;;;;;5028100;28;20449;-71
2022/05/01 03:31:42;;;;;;;12.00;9.40;;;8.30;99.90;;;;;;5014708;28;20517;-71
2022/05/01 03:34:11;;;;;;;17.30;10.73;;;8.30;99.90;;;;;;5016873;28;20461;-71
2022/05/01 03:36:37;;;;;;;14.57;9.90;;;8.30;99.90;;;;;;5014896;28;20470;-71
2022/05/01 03:39:05;;;;;;;16.20;10.13;;;8.30;99.90;;;;;;5024254;28;20477;-71
2022/05/01 03:41:32;;;;;;;18.57;10.70;;;8.30;99.90;;;;;;5028855;28;20466;-71
2022/05/01 03:43:58;;;;;;;11.93;9.90;;;8.30;99.90;;;;;;5027352;28;20515;-71
2022/05/01 03:46:25;;;;;;;17.10;10.20;;;8.30;99.90;;;;;;5023000;28;21342;-71
2022/05/01 03:48:52;;;;;;;21.80;11.10;;;8.30;99.90;;;;;;5016190;28;20587;-71
2022/05/01 03:51:20;;;;;;;13.70;10.50;;;8.30;99.90;;;;;;5025350;28;20516;-71
2022/05/01 03:53:47;;;;;;;11.67;9.87;;;8.30;99.90;;;;;;5026159;28;20462;-71
2022/05/01 03:56:14;;;;;;;20.37;10.83;;;8.20;99.90;;;;;;5017569;28;20974;-70
2022/05/01 03:58:41;;;;;;;15.40;9.80;;;8.20;99.90;;;;;;5016335;28;20496;-71
2022/05/01 04:01:08;;;;;;;13.20;9.40;;;8.20;99.90;;;;;;5018416;28;20528;-71
2022/05/01 04:03:35;;;;;;;16.03;10.47;;;8.20;99.90;;;;;;5013964;28;20454;-71
2022/05/01 04:06:01;;;;;;;13.30;9.17;;;8.20;99.90;;;;;;5021349;28;20453;-71
2022/05/01 04:08:29;;;;;;;11.60;9.37;;;8.20;99.90;;;;;;5016073;28;20936;-71
2022/05/01 04:10:56;;;;;;;15.90;10.50;;;8.20;99.90;;;;;;5025141;28;20525;-71
2022/05/01 04:13:22;;;;;;;11.23;9.30;;;8.20;99.90;;;;;;5012413;28;20870;-71
2022/05/01 04:15:49;;;;;;;13.40;9.60;;;8.20;99.90;;;;;;5026811;28;20514;-71
2022/05/01 04:18:15;;;;;;;13.37;9.70;;;8.20;99.90;;;;;;5028074;28;20547;-72
2022/05/01 04:20:42;;;;;;;17.67;9.17;;;8.20;99.90;;;;;;5030527;28;20485;-71
2022/05/01 04:23:10;;;;;;;11.83;9.83;;;8.20;99.90;;;;;;5012880;28;20871;-71
2022/05/01 04:25:38;;;;;;;12.10;10.10;;;8.20;99.90;;;;;;5028975;28;20527;-71
2022/05/01 04:28:07;;;;;;;16.80;9.73;;;8.30;99.90;;;;;;5017822;28;20473;-71
2022/05/01 04:30:34;;;;;;;14.13;9.80;;;8.30;99.90;;;;;;5022722;28;20473;-71
2022/05/01 04:33:03;;;;;;;16.80;9.53;;;8.30;99.90;;;;;;5013820;28;20512;-71
2022/05/01 04:35:31;;;;;;;19.03;8.90;;;8.40;99.90;;;;;;5026629;28;20995;-71
2022/05/01 04:38:00;;;;;;;13.40;9.53;;;8.40;99.90;;;;;;5015857;28;20451;-71
2022/05/01 04:40:28;;;;;;;12.90;8.93;;;8.40;99.90;;;;;;5024669;28;20467;-71
2022/05/01 04:43:01;;;;;;;14.77;9.40;;;8.40;99.90;;;;;;5016963;28;20446;-71
2022/05/01 04:45:28;;;;;;;12.23;9.27;;;8.40;99.90;;;;;;5022776;28;20457;-71
2022/05/01 04:47:55;;;;;;;13.73;9.20;;;8.40;99.90;;;;;;5029064;28;20445;-71
2022/05/01 04:50:21;;;;;;;13.17;8.83;;;8.40;99.90;;;;;;5025926;28;21031;-71
2022/05/01 04:52:48;;;;;;;12.33;8.87;;;8.50;99.90;;;;;;5023945;28;20449;-71
2022/05/01 04:55:15;;;;;;;17.53;9.33;;;8.50;99.90;;;;;;5025761;28;20461;-71
2022/05/01 04:57:41;;;;;;;14.43;10.10;;;8.60;99.90;;;;;;5027583;28;20532;-71
2022/05/01 05:00:11;;;;;;;15.20;8.97;;;8.60;99.90;;;;;;5031563;28;20477;-71
2022/05/01 05:02:39;;;;;;;12.80;8.97;;;8.60;99.90;;;;;;5027238;28;20461;-71
2022/05/01 05:05:08;;;;;;;15.83;9.30;;;8.60;99.90;;;;;;5020512;28;20506;-71
2022/05/01 05:07:35;;;;;;;12.87;9.17;;;8.70;99.90;;;;;;5025817;28;20453;-71
2022/05/01 05:10:01;;;;;;;11.70;9.17;;;8.70;99.90;;;;;;5022951;28;20469;-72
2022/05/01 05:12:28;;;;;;;12.30;9.57;;;8.70;99.90;;;;;;5022236;28;20957;-72
2022/05/01 05:14:58;;;;;;;11.20;8.50;;;8.70;99.90;;;;;;5018733;28;20206;-72
2022/05/01 05:17:28;;;;;;;9.73;8.63;;;8.80;99.90;;;;;;5024899;28;20453;-72
2022/05/01 05:19:55;;;;;;;16.40;9.30;;;8.80;99.90;;;;;;5019707;28;20866;-72
2022/05/01 05:22:21;;;;;;;14.30;8.27;;;8.80;99.90;;;;;;5018986;28;20511;-73
2022/05/01 05:24:48;;;;;;;18.93;9.83;;;8.90;99.90;;;;;;5026727;28;20446;-72
2022/05/01 05:27:15;;;;;;;10.10;9.00;;;8.90;99.90;;;;;;5032466;28;20480;-72
2022/05/01 05:29:42;;;;;;;11.47;8.73;;;8.90;99.90;;;;;;5021837;28;21020;-72
2022/05/01 05:32:08;;;;;;;9.40;8.40;;;9.00;99.90;;;;;;5022160;28;20931;-72
2022/05/01 05:34:36;;;;;;;14.60;9.57;;;9.00;99.90;;;;;;5027734;28;20461;-72
2022/05/01 05:37:03;;;;;;;13.87;9.87;;;9.00;99.90;;;;;;5015445;28;20485;-72
2022/05/01 05:39:30;;;;;;;11.43;9.07;;;9.00;99.90;;;;;;5025880;28;20496;-72
2022/05/01 05:41:56;;;;;;;12.10;9.67;;;9.00;99.90;;;;;;5019176;28;20508;-72
2022/05/01 05:44:23;;;;;;;11.57;9.40;;;9.10;99.90;;;;;;5028623;28;21104;-72
2022/05/01 05:46:50;;;;;;;12.20;8.70;;;9.10;99.90;;;;;;5016548;28;20462;-72
2022/05/01 05:49:17;;;;;;;11.47;9.20;;;9.10;99.90;;;;;;5023669;28;20501;-72
2022/05/01 05:51:45;;;;;;;12.37;9.63;;;9.10;99.90;;;;;;5020571;28;20501;-72
2022/05/01 05:54:11;;;;;;;18.53;9.63;;;9.20;99.90;;;;;;5017633;28;20458;-72
2022/05/01 05:56:38;;;;;;;18.50;9.70;;;9.20;99.90;;;;;;5026138;28;20953;-72
2022/05/01 05:59:05;;;;;;;18.97;9.13;;;9.20;99.90;;;;;;5019717;28;20478;-72
2022/05/01 06:01:31;;;;;;;15.73;10.37;;;9.20;99.90;;;;;;5016395;28;20528;-72
2022/05/01 06:03:58;;;;;;;12.93;9.30;;;9.30;99.90;;;;;;5015019;28;20497;-72
2022/05/01 06:06:24;;;;;;;10.83;8.50;;;9.30;99.90;;;;;;5027705;28;20548;-72
2022/05/01 06:08:53;;;;;;;10.70;8.20;;;9.40;99.90;;;;;;5029344;28;20445;-72
2022/05/01 06:11:19;;;;;;;9.57;8.57;;;9.40;99.90;;;;;;5019320;28;20496;-72
2022/05/01 06:13:46;;;;;;;14.40;8.87;;;9.50;99.90;;;;;;5043979;28;20464;-72
2022/05/01 06:16:12;;;;;;;10.90;8.73;;;9.60;99.90;;;;;;5021064;28;20458;-73
2022/05/01 06:18:39;;;;;;;16.40;8.77;;;9.60;99.90;;;;;;5022893;28;20941;-73
2022/05/01 06:21:06;;;;;;;11.57;8.90;;;9.70;99.90;;;;;;5020096;28;20528;-73
2022/05/01 06:23:34;;;;;;;14.90;9.07;;;9.80;99.90;;;;;;5016978;28;20493;-72
2022/05/01 06:26:04;;;;;;;16.60;8.77;;;9.90;99.90;;;;;;5018767;28;20480;-72
2022/05/01 06:28:31;;;;;;;12.43;8.70;;;10.00;99.90;;;;;;5022081;28;20865;-74
2022/05/01 06:30:59;;;;;;;15.13;9.03;;;10.10;99.90;;;;;;5018619;28;20540;-75
2022/05/01 06:33:26;;;;;;;15.33;9.17;;;10.10;99.90;;;;;;5021003;28;20926;-74
2022/05/01 06:35:54;;;;;;;13.60;8.53;;;10.20;99.90;;;;;;5030307;28;20487;-74
2022/05/01 06:38:22;;;;;;;10.83;8.17;;;10.30;99.90;;;;;;5022050;28;21020;-73
2022/05/01 06:40:49;;;;;;;14.13;8.20;;;10.40;99.90;;;;;;5013871;28;20556;-74
2022/05/01 06:43:18;;;;;;;16.10;8.77;;;10.30;99.90;;;;;;5025420;28;20457;-73
2022/05/01 06:45:45;;;;;;;13.60;8.27;;;10.50;99.90;;;;;;5020426;28;20458;-73
2022/05/01 06:48:12;;;;;;;13.10;8.87;;;10.50;99.90;;;;;;5017719;28;20454;-74
2022/05/01 06:50:39;;;;;;;10.20;8.07;;;10.60;99.90;;;;;;5019527;28;21020;-75
2022/05/01 06:53:06;;;;;;;10.80;8.30;;;10.60;99.90;;;;;;5019039;28;20950;-70
2022/05/01 06:55:34;;;;;;;10.80;8.00;;;10.70;99.90;;;;;;5020162;28;20457;-74
2022/05/01 06:58:00;;;;;;;12.90;8.00;;;10.70;99.90;;;;;;5014534;28;20544;-74
2022/05/01 07:00:28;;;;;;;8.60;7.70;;;10.80;99.90;;;;;;5027194;28;20504;-72
2022/05/01 07:02:56;;;;;;;10.67;8.30;;;10.90;99.90;;;;;;5020437;28;20855;-75
2022/05/01 07:05:23;;;;;;;9.60;7.70;;;10.90;99.90;;;;;;5040457;28;20490;-74
2022/05/01 07:07:50;;;;;;;14.17;8.70;;;11.00;99.90;;;;;;5020094;28;20450;-74
2022/05/01 07:10:18;;;;;;;8.77;7.30;;;11.00;99.90;;;;;;5029266;28;20473;-74
2022/05/01 07:12:45;;;;;;;15.30;7.90;;;11.10;99.90;;;;;;5031230;28;20491;-74
2022/05/01 07:15:12;;;;;;;11.73;6.90;;;11.20;99.90;;;;;;5028576;28;21016;-74
2022/05/01 07:17:40;;;;;;;14.23;7.47;;;11.20;99.90;;;;;;5026482;28;20487;-74
2022/05/01 07:20:08;;;;;;;10.33;7.07;;;11.20;99.90;;;;;;5014104;28;20482;-73
2022/05/01 07:22:35;;;;;;;9.80;7.60;;;11.10;99.90;;;;;;5022546;28;20512;-74
2022/05/01 07:25:01;;;;;;;10.10;7.30;;;11.20;99.90;;;;;;5019336;28;20446;-75
2022/05/01 07:27:28;;;;;;;11.13;8.10;;;11.20;99.90;;;;;;5021696;28;20508;-74
2022/05/01 07:29:55;;;;;;;9.00;7.80;;;11.20;99.90;;;;;;5024228;28;20470;-76
2022/05/01 07:32:21;;;;;;;14.37;7.80;;;11.30;99.90;;;;;;5034395;28;20508;-74
2022/05/01 07:34:49;;;;;;;18.60;7.20;;;11.40;99.90;;;;;;5024629;28;20523;-74
2022/05/01 07:37:16;;;;;;;8.97;7.60;;;11.50;99.90;;;;;;5016757;28;20454;-74
2022/05/01 07:39:43;;;;;;;11.47;7.33;;;11.50;99.90;;;;;;5017436;28;20497;-75
2022/05/01 07:42:11;;;;;;;10.17;7.60;;;11.50;99.90;;;;;;5019727;28;20451;-75
2022/05/01 07:44:37;;;;;;;11.93;6.47;;;11.50;99.90;;;;;;5014699;28;20466;-73
2022/05/01 07:47:04;;;;;;;12.07;7.80;;;11.50;99.90;;;;;;5021517;28;20973;-74
2022/05/01 07:49:34;;;;;;;15.93;7.03;;;11.60;99.90;;;;;;5022656;28;20515;-74
2022/05/01 07:52:02;;;;;;;14.13;8.23;;;11.70;99.90;;;;;;5016923;28;20449;-74
2022/05/01 07:54:28;;;;;;;10.83;7.40;;;11.70;99.90;;;;;;5022115;28;20812;-75
2022/05/01 07:56:55;;;;;;;12.80;7.30;;;11.80;99.90;;;;;;5014391;28;20558;-74
2022/05/01 07:59:21;;;;;;;12.40;8.13;;;11.90;99.90;;;;;;5027557;28;20541;-74
2022/05/01 08:01:48;;;;;;;11.87;7.60;;;11.90;99.90;;;;;;5027279;28;20543;-73
2022/05/01 08:04:29;;;;;;;10.50;8.27;;;12.00;99.90;;;;;;5015459;28;20500;-73
2022/05/01 08:07:00;;;;;;;13.20;7.60;;;12.00;99.90;;;;;;5020512;28;20933;-74
2022/05/01 08:09:29;;;;;;;9.47;7.20;;;12.00;99.90;;;;;;5017149;28;20479;-73
2022/05/01 08:11:56;;;;;;;10.47;7.70;;;12.10;99.90;;;;;;5023591;28;20489;-74
2022/05/01 08:14:23;;;;;;;12.63;8.20;;;12.20;99.90;;;;;;5018388;28;20462;-74
2022/05/01 08:16:50;;;;;;;17.30;8.83;;;12.20;99.90;;;;;;5031251;28;20499;-73
2022/05/01 08:22:03;;;;;;;15.63;8.67;;;12.20;99.90;;;;;;5028378;28;20538;-72
2022/05/01 08:24:31;;;;;;;14.10;10.50;;;12.30;99.90;;;;;;5026781;28;20477;-74
2022/05/01 08:27:04;;;;;;;13.77;9.00;;;12.20;99.90;;;;;;5024429;28;20875;-74
2022/05/01 08:29:31;;;;;;;13.27;9.97;;;12.30;99.90;;;;;;5027414;28;20453;-74
2022/05/01 08:31:58;;;;;;;11.73;8.40;;;12.30;99.90;;;;;;5027345;28;20485;-74
2022/05/01 08:34:25;;;;;;;13.50;9.17;;;12.40;99.90;;;;;;5021967;28;20488;-73
2022/05/01 08:36:51;;;;;;;15.23;8.90;;;12.40;99.90;;;;;;5022776;28;20454;-73
2022/05/01 08:39:18;;;;;;;12.13;8.20;;;12.40;99.90;;;;;;5024216;28;20445;-74
2022/05/01 08:41:46;;;;;;;15.90;8.50;;;12.50;99.90;;;;;;5026066;28;20500;-74
2022/05/01 08:44:16;;;;;;;11.73;8.43;;;12.60;99.90;;;;;;5030325;28;21001;-74
2022/05/01 08:47:07;;;;;;;14.33;8.73;;;12.70;99.90;;;;;;5024453;28;20461;-74
2022/05/01 08:49:34;;;;;;;13.23;7.57;;;12.90;99.90;;;;;;5017597;28;21041;-73
2022/05/01 08:52:02;;;;;;;13.17;8.47;;;13.20;99.90;;;;;;5029342;28;20807;-74
2022/05/01 08:54:31;;;;;;;10.90;7.63;;;13.50;99.90;;;;;;5021371;28;20815;-74
2022/05/01 08:57:00;;;;;;;18.87;8.50;;;13.80;99.90;;;;;;5023215;28;20503;-74
2022/05/01 08:59:29;;;;;;;10.73;7.73;;;14.10;99.90;;;;;;5032108;28;21203;-74
2022/05/01 09:01:56;;;;;;;10.50;7.73;;;14.30;99.90;;;;;;5046508;28;20476;-72
2022/05/01 09:04:25;;;;;;;12.87;8.00;;;14.60;99.90;;;;;;5040588;28;20458;-73
2022/05/01 09:06:53;;;;;;;14.33;9.57;;;14.70;99.90;;;;;;5023509;28;20498;-73
2022/05/01 09:09:21;;;;;;;12.33;7.93;;;14.90;99.90;;;;;;5026312;28;20458;-73
2022/05/01 09:14:35;;;;;;;10.20;8.40;;;15.50;99.90;;;;;;5024093;28;20528;-73
2022/05/01 09:17:14;;;;;;;10.70;7.97;;;15.90;99.90;;;;;;5033637;28;20445;-77
2022/05/01 09:19:40;;;;;;;11.57;7.70;;;16.10;99.90;;;;;;5019225;28;20551;-75
2022/05/01 09:22:08;;;;;;;12.60;7.50;;;16.20;99.90;;;;;;5019329;28;20428;-76
2022/05/01 09:24:34;;;;;;;16.30;8.60;;;16.10;99.90;;;;;;5024648;28;20436;-76
2022/05/01 09:27:01;;;;;;;12.00;7.83;;;15.90;99.90;;;;;;5028420;28;20505;-77
2022/05/01 09:29:32;;;;;;;14.50;7.13;;;15.70;99.90;;;;;;5018790;28;20451;-75
2022/05/01 09:32:03;;;;;;;13.07;7.90;;;15.60;99.90;;;;;;5026088;28;20465;-74
2022/05/01 09:34:31;;;;;;;12.93;7.80;;;15.50;99.90;;;;;;5025194;28;20465;-74
2022/05/01 09:37:00;;;;;;;12.10;8.40;;;15.90;99.90;;;;;;5026814;28;20520;-74
2022/05/01 09:39:28;;;;;;;16.83;8.70;;;16.00;99.90;;;;;;5030825;28;20490;-74
2022/05/01 09:41:56;;;;;;;11.40;8.67;;;16.10;99.90;;;;;;5017163;28;20474;-74
2022/05/01 09:44:23;;;;;;;11.93;8.00;;;16.10;99.90;;;;;;5017631;28;20450;-74
2022/05/01 09:46:51;;;;;;;13.80;7.97;;;16.20;99.90;;;;;;5030594;28;20869;-74
2022/05/01 09:49:20;;;;;;;11.40;8.53;;;16.30;99.90;;;;;;5015890;28;20501;-74
2022/05/01 09:51:54;;;;;;;11.93;8.90;;;16.40;99.90;;;;;;5022389;28;20474;-74
2022/05/01 09:54:23;;;;;;;10.30;8.03;;;16.60;99.90;;;;;;5015130;28;20519;-74
2022/05/01 09:56:51;;;;;;;12.70;8.23;;;16.70;99.90;;;;;;5027645;28;20452;-74
2022/05/01 09:59:19;;;;;;;11.00;7.87;;;16.70;99.90;;;;;;5017873;28;20528;-76
2022/05/01 10:01:57;;;;;;;11.27;8.23;;;17.00;99.90;;;;;;5020021;28;20878;-75
2022/05/01 10:04:25;;;;;;;20.77;7.70;;;17.30;99.90;;;;;;5013787;28;20429;-76
2022/05/01 10:06:53;;;;;;;13.60;8.40;;;17.50;99.90;;;;;;5032967;28;20458;-74
2022/05/01 10:09:22;;;;;;;13.37;7.67;;;17.50;99.90;;;;;;5015889;28;20516;-75
2022/05/01 10:11:52;;;;;;;14.43;7.93;;;17.50;99.90;;;;;;5023226;28;20459;-75
2022/05/01 10:14:20;;;;;;;13.87;8.80;;;17.60;99.90;;;;;;5013848;28;20425;-75
2022/05/01 10:16:47;;;;;;;13.60;8.83;;;17.50;99.90;;;;;;5031734;28;20489;-75
2022/05/01 10:19:15;;;;;;;10.47;9.00;;;17.60;99.90;;;;;;5029522;28;20421;-76
2022/05/01 10:21:47;;;;;;;13.20;8.50;;;17.80;99.90;;;;;;5023301;28;21256;-74
2022/05/01 10:24:14;;;;;;;15.10;8.00;;;17.60;99.90;;;;;;5026116;28;20455;-72
2022/05/01 10:26:47;;;;;;;14.60;8.77;;;17.30;99.90;;;;;;5027184;28;20427;-72
2022/05/01 10:29:33;;;;;;;14.50;9.50;;;17.40;99.90;;;;;;5024707;28;20433;-72
2022/05/01 10:32:24;;;;;;;10.60;7.83;;;17.50;99.90;;;;;;5025366;28;20453;-77
2022/05/01 10:35:21;;;;;;;13.40;8.90;;;18.00;99.90;;;;;;5023113;28;20432;-78
2022/05/01 10:38:07;;;;;;;10.00;7.40;;;18.30;99.90;;;;;;5025456;28;20474;-79
2022/05/01 10:40:39;;;;;;;9.90;7.23;;;18.30;99.90;;;;;;5017744;28;20472;-78
2022/05/01 10:43:25;;;;;;;11.50;8.20;;;18.30;99.90;;;;;;5025447;28;20424;-77
2022/05/01 10:45:53;;;;;;;14.30;8.83;;;18.60;99.90;;;;;;5018608;28;20565;-76
2022/05/01 10:48:30;;;;;;;13.80;9.27;;;18.70;99.90;;;;;;5029420;28;20453;-77
2022/05/01 10:50:56;;;;;;;11.40;7.90;;;18.80;99.90;;;;;;5030852;28;20469;-76
2022/05/01 10:53:24;;;;;;;18.27;8.47;;;19.10;99.90;;;;;;5027773;28;20485;-77
2022/05/01 10:55:53;;;;;;;12.20;8.40;;;19.50;99.90;;;;;;5020502;28;20421;-77
2022/05/01 10:58:22;;;;;;;11.70;8.10;;;19.60;99.90;;;;;;5022601;28;20454;-80
2022/05/01 11:00:50;;;;;;;15.80;7.90;;;19.80;99.90;;;;;;5023403;28;20496;-77
2022/05/01 11:03:24;;;;;;;14.47;8.90;;;20.00;99.90;;;;;;5026232;28;20449;-77
2022/05/01 11:05:55;;;;;;;10.70;8.47;;;20.20;99.90;;;;;;5029487;28;20453;-75
2022/05/01 11:08:27;;;;;;;12.60;8.40;;;20.10;99.90;;;;;;5020084;28;20480;-76
2022/05/01 11:10:55;;;;;;;11.90;8.30;;;20.20;99.90;;;;;;5017953;28;21157;-75
2022/05/01 11:13:27;;;;;;;14.80;9.80;;;20.10;99.90;;;;;;5020109;28;20450;-77
2022/05/01 11:15:55;;;;;;;14.70;8.33;;;19.90;99.90;;;;;;5030885;28;20515;-77
2022/05/01 11:18:29;;;;;;;9.07;7.63;;;19.80;99.90;;;;;;5030893;28;20448;-76
2022/05/01 11:20:56;;;;;;;14.27;8.67;;;19.90;99.90;;;;;;5033162;28;20510;-76
2022/05/01 11:23:36;;;;;;;16.30;8.67;;;19.90;99.90;;;;;;5049669;28;20459;-75
2022/05/01 11:26:11;;;;;;;11.77;8.47;;;19.90;99.90;;;;;;5047410;28;20523;-75
2022/05/01 11:28:46;;;;;;;15.80;8.40;;;20.10;99.90;;;;;;5040019;28;20479;-75
2022/05/01 11:31:47;;;;;;;18.27;8.33;;;19.70;99.90;;;;;;5049584;28;20468;-77
2022/05/01 11:34:51;;;;;;;11.60;8.50;;;19.60;99.90;;;;;;5049868;28;20448;-76
2022/05/01 11:37:19;;;;;;;10.97;8.50;;;19.90;99.90;;;;;;5046426;28;20535;-77
2022/05/01 11:40:26;;;;;;;13.80;8.57;;;20.40;99.90;;;;;;5039148;28;20954;-77
2022/05/01 11:42:53;;;;;;;14.63;8.37;;;20.90;99.90;;;;;;4969316;28;20491;-77
2022/05/01 11:45:22;;;;;;;18.03;7.97;;;21.00;99.90;;;;;;4968646;28;20887;-76
2022/05/01 11:47:51;;;;;;;8.40;7.43;;;20.80;99.90;;;;;;5012047;28;20531;-77
2022/05/01 11:50:20;;;;;;;12.17;8.60;;;20.60;99.90;;;;;;5047746;28;20471;-77
2022/05/01 11:52:54;;;;;;;9.47;8.40;;;20.30;99.90;;;;;;5030627;28;20468;-76
2022/05/01 12:03:35;;;;;;;13.82;9.40;;;20.20;99.90;;;;;;5028961;28;20451;-76
2022/05/01 12:06:02;;;;;;;14.73;9.90;;;19.90;99.90;;;;;;5034610;28;20207;-77
2022/05/01 12:08:28;;;;;;;18.90;11.07;;;19.90;99.90;;;;;;5044865;28;20514;-76
2022/05/01 12:10:56;;;;;;;15.30;11.43;;;19.90;99.90;;;;;;5030292;28;20469;-77
2022/05/01 12:13:27;;;;;;;22.50;10.87;;;19.80;99.90;;;;;;5030017;28;20481;-76
2022/05/01 12:15:55;;;;;;;11.60;10.27;;;19.50;99.90;;;;;;5030063;28;20469;-76
2022/05/01 12:18:23;;;;;;;14.27;9.90;;;19.40;99.90;;;;;;5032426;28;20428;-75
2022/05/01 12:20:50;;;;;;;14.10;9.57;;;19.00;99.90;;;;;;5029544;28;20512;-78
2022/05/01 12:23:19;;;;;;;15.70;9.80;;;19.00;99.90;;;;;;5049204;28;20879;-76
2022/05/01 12:25:46;;;;;;;16.67;10.37;;;19.00;99.90;;;;;;5049575;28;20423;-76
2022/05/01 12:28:15;;;;;;;14.40;10.90;;;19.00;99.90;;;;;;5045165;28;20488;-76
2022/05/01 12:30:43;;;;;;;18.80;9.63;;;19.00;99.90;;;;;;5029692;28;20872;-74
2022/05/01 12:33:18;;;;;;;15.43;10.90;;;18.90;99.90;;;;;;5049969;28;20526;-76
2022/05/01 12:35:53;;;;;;;14.17;11.60;;;18.80;99.90;;;;;;5031150;28;20977;-75
2022/05/01 12:38:20;;;;;;;18.30;10.47;;;19.20;99.90;;;;;;5044721;28;20463;-77
2022/05/01 12:46:28;;;;;;;15.13;10.13;;;19.90;99.90;;;;;;5031322;28;20942;-73
2022/05/01 12:48:56;;;;;;;13.70;10.90;;;20.00;99.90;;;;;;5031642;28;20535;-73
2022/05/01 12:51:24;;;;;;;13.63;10.30;;;20.20;99.90;;;;;;5047594;28;20894;-73
2022/05/01 12:54:08;;;;;;;16.60;10.10;;;20.30;99.90;;;;;;5048150;28;20463;-73
2022/05/01 12:56:35;;;;;;;9.40;8.40;;;20.20;99.90;;;;;;5048573;28;21000;-72
2022/05/01 12:59:23;;;;;;;12.17;9.40;;;20.30;99.90;;;;;;5032651;28;20448;-74
2022/05/01 13:01:50;;;;;;;15.27;8.93;;;20.10;99.90;;;;;;5050992;28;20514;-72
2022/05/01 13:04:22;;;;;;;11.33;9.07;;;20.20;99.90;;;;;;5033493;28;20849;-73
2022/05/01 13:06:48;;;;;;;14.23;8.93;;;20.30;99.90;;;;;;5034973;28;20465;-78
2022/05/01 13:09:16;;;;;;;10.40;8.10;;;20.60;99.90;;;;;;5038588;28;20427;-77
2022/05/01 13:11:59;;;;;;;9.17;8.27;;;20.70;99.90;;;;;;5041197;28;20484;-77
2022/05/01 13:14:32;;;;;;;15.47;7.73;;;20.60;99.90;;;;;;5050622;28;20901;-77
2022/05/01 13:17:08;;;;;;;10.77;8.03;;;20.50;99.90;;;;;;5037440;28;20457;-76
2022/05/01 13:19:35;;;;;;;13.43;8.97;;;20.10;99.90;;;;;;5035099;28;20453;-77
2022/05/01 13:22:01;;;;;;;10.50;7.83;;;19.90;99.90;;;;;;5042067;28;20480;-76
2022/05/01 13:24:30;;;;;;;17.50;8.37;;;19.80;99.90;;;;;;5036896;28;21012;-77